Time,TemperatureF,DewpointF,PressureIn,WindDirection,WindDirectionDegrees,WindSpeedMPH,WindSpeedGustMPH,Humidity,HourlyPrecipIn,Conditions,Clouds,dailyrainin,SoftwareType,DateUTC
2013-05-27 00:00:00,45.4,35.8,30.26,NNW,338,0.0,0.0,69,0.00,,,0.00,WUHU216HW,2013-05-27 04:00:00,
2013-05-27 00:02:00,45.4,35.8,30.26,NNW,338,0.0,0.0,69,0.00,,,0.00,WUHU216HW,2013-05-27 04:02:00,
2013-05-27 00:10:00,45.4,36.2,30.26,NNW,338,0.0,0.0,70,0.00,,,0.00,WUHU216HW,2013-05-27 04:10:00,
2013-05-27 00:12:00,45.2,36.0,30.26,NNW,338,0.0,0.0,70,0.00,,,0.00,WUHU216HW,2013-05-27 04:12:00,
2013-05-27 00:20:00,45.0,35.8,30.26,NNW,338,0.0,0.0,70,0.00,,,0.00,WUHU216HW,2013-05-27 04:20:00,
2013-05-27 00:22:00,45.0,36.2,30.26,NNW,338,0.0,0.0,71,0.00,,,0.00,WUHU216HW,2013-05-27 04:22:00,
2013-05-27 00:30:00,44.5,36.0,30.26,NNW,338,0.0,0.0,72,0.00,,,0.00,WUHU216HW,2013-05-27 04:30:00,
2013-05-27 00:40:00,44.1,35.6,30.26,NNW,338,0.0,0.0,72,0.00,,,0.00,WUHU216HW,2013-05-27 04:40:00,
2013-05-27 00:50:00,43.9,35.8,30.26,NNW,338,0.0,0.0,73,0.00,,,0.00,WUHU216HW,2013-05-27 04:50:00,
2013-05-27 01:00:00,43.9,36.2,30.26,NNW,338,0.0,0.0,74,0.00,,,0.00,WUHU216HW,2013-05-27 05:00:00,
2013-05-27 01:10:00,43.6,35.5,30.26,NNW,338,0.0,0.0,73,0.00,,,0.00,WUHU216HW,2013-05-27 05:10:00,
2013-05-27 01:20:00,43.4,35.6,30.26,NNW,338,0.0,0.0,74,0.00,,,0.00,WUHU216HW,2013-05-27 05:20:00,
2013-05-27 01:30:00,43.0,35.3,30.26,NNW,338,0.0,0.0,74,0.00,,,0.00,WUHU216HW,2013-05-27 05:30:00,
2013-05-27 01:40:00,42.8,35.5,30.26,NNW,338,0.0,0.0,75,0.00,,,0.00,WUHU216HW,2013-05-27 05:40:00,
2013-05-27 01:50:00,42.5,35.1,30.26,NNW,338,0.0,0.0,75,0.00,,,0.00,WUHU216HW,2013-05-27 05:50:00,
2013-05-27 02:00:00,42.1,35.1,30.26,NNW,338,0.0,0.0,76,0.00,,,0.00,WUHU216HW,2013-05-27 06:00:00,
2013-05-27 02:10:00,42.1,35.1,30.27,NNW,338,0.0,0.0,76,0.00,,,0.00,WUHU216HW,2013-05-27 06:10:00,
2013-05-27 02:20:00,41.8,35.0,30.27,NNW,338,0.0,0.0,77,0.00,,,0.00,WUHU216HW,2013-05-27 06:20:00,
2013-05-27 02:30:00,41.8,35.0,30.26,NNW,338,0.0,0.0,77,0.00,,,0.00,WUHU216HW,2013-05-27 06:30:00,
2013-05-27 02:40:00,41.8,35.0,30.27,NNW,338,0.0,0.0,77,0.00,,,0.00,WUHU216HW,2013-05-27 06:40:00,
2013-05-27 02:50:00,41.4,35.0,30.27,NNW,338,0.0,0.0,78,0.00,,,0.00,WUHU216HW,2013-05-27 06:50:00,
2013-05-27 03:00:00,41.4,35.0,30.27,NNW,338,0.0,0.0,78,0.00,,,0.00,WUHU216HW,2013-05-27 07:00:00,
2013-05-27 03:10:00,41.0,34.9,30.27,NNW,338,0.0,0.0,79,0.00,,,0.00,WUHU216HW,2013-05-27 07:10:00,
2013-05-27 03:20:00,41.2,35.1,30.27,NNW,338,0.0,0.0,79,0.00,,,0.00,WUHU216HW,2013-05-27 07:20:00,
2013-05-27 03:30:00,41.2,35.1,30.27,NNW,338,0.0,0.0,79,0.00,,,0.00,WUHU216HW,2013-05-27 07:30:00,
2013-05-27 03:40:00,41.0,34.9,30.27,NNW,338,0.0,0.0,79,0.00,,,0.00,WUHU216HW,2013-05-27 07:40:00,
2013-05-27 03:50:00,40.9,34.8,30.27,NNW,338,0.0,0.0,79,0.00,,,0.00,WUHU216HW,2013-05-27 07:50:00,
2013-05-27 04:00:00,40.9,35.1,30.27,NNW,338,0.0,0.0,80,0.00,,,0.00,WUHU216HW,2013-05-27 08:00:00,
2013-05-27 04:10:00,40.7,34.9,30.27,NNW,338,0.0,0.0,80,0.00,,,0.00,WUHU216HW,2013-05-27 08:10:00,
2013-05-27 04:20:00,40.5,35.1,30.27,NNW,338,0.0,0.0,81,0.00,,,0.00,WUHU216HW,2013-05-27 08:20:00,
2013-05-27 04:30:00,40.3,34.9,30.27,NNW,338,0.0,0.0,81,0.00,,,0.00,WUHU216HW,2013-05-27 08:30:00,
2013-05-27 04:40:00,40.3,34.9,30.27,NNW,338,0.0,0.0,81,0.00,,,0.00,WUHU216HW,2013-05-27 08:40:00,
2013-05-27 04:50:00,40.1,34.7,30.27,NNW,338,0.0,0.0,81,0.00,,,0.00,WUHU216HW,2013-05-27 08:50:00,
2013-05-27 05:00:00,40.1,34.5,30.27,NNW,338,0.0,0.0,80,0.00,,,0.00,WUHU216HW,2013-05-27 09:00:00,
2013-05-27 05:11:00,40.0,34.3,30.27,NNW,338,0.0,0.0,80,0.00,,,0.00,WUHU216HW,2013-05-27 09:11:00,
2013-05-27 05:21:00,40.1,34.5,30.27,NNW,338,0.0,0.0,80,0.00,,,0.00,WUHU216HW,2013-05-27 09:21:00,
2013-05-27 05:31:00,40.1,34.7,30.27,NNW,338,0.0,0.2,81,0.00,,,0.00,WUHU216HW,2013-05-27 09:31:00,
2013-05-27 05:41:00,40.5,35.4,30.27,NNW,338,0.0,0.4,82,0.00,,,0.00,WUHU216HW,2013-05-27 09:41:00,
2013-05-27 05:51:00,40.3,35.2,30.28,NNW,338,0.0,0.0,82,0.00,,,0.00,WUHU216HW,2013-05-27 09:51:00,
2013-05-27 06:01:00,40.0,34.9,30.28,NNW,338,0.0,0.0,82,0.00,,,0.00,WUHU216HW,2013-05-27 10:01:00,
2013-05-27 06:11:00,40.0,34.9,30.28,NNW,338,0.0,0.0,82,0.00,,,0.00,WUHU216HW,2013-05-27 10:11:00,
2013-05-27 06:21:00,40.3,35.6,30.29,NNW,338,0.0,0.0,83,0.00,,,0.00,WUHU216HW,2013-05-27 10:21:00,
2013-05-27 06:31:00,40.5,35.4,30.29,NNW,338,0.0,0.0,82,0.00,,,0.00,WUHU216HW,2013-05-27 10:31:00,
2013-05-27 06:41:00,40.9,35.7,30.29,NNW,338,0.0,0.0,82,0.00,,,0.00,WUHU216HW,2013-05-27 10:41:00,
2013-05-27 06:51:00,41.4,36.5,30.29,NNW,338,0.0,0.0,83,0.00,,,0.00,WUHU216HW,2013-05-27 10:51:00,
2013-05-27 07:01:00,42.1,37.6,30.29,NNW,338,0.0,0.0,84,0.00,,,0.00,WUHU216HW,2013-05-27 11:01:00,
2013-05-27 07:11:00,43.2,38.7,30.29,NNW,338,0.0,0.0,84,0.00,,,0.00,WUHU216HW,2013-05-27 11:11:00,
2013-05-27 07:21:00,44.8,40.3,30.29,NNW,338,0.0,0.0,84,0.00,,,0.00,WUHU216HW,2013-05-27 11:21:00,
2013-05-27 07:31:00,46.3,41.4,30.29,NNW,338,0.0,0.0,83,0.00,,,0.00,WUHU216HW,2013-05-27 11:31:00,
2013-05-27 07:41:00,47.7,42.1,30.29,NNW,338,0.0,0.0,81,0.00,,,0.00,WUHU216HW,2013-05-27 11:41:00,
2013-05-27 07:51:00,49.7,42.4,30.30,NNW,338,0.0,0.0,76,0.00,,,0.00,WUHU216HW,2013-05-27 11:51:00,
2013-05-27 08:01:00,51.3,42.7,30.30,West,270,0.2,1.1,72,0.00,,,0.00,WUHU216HW,2013-05-27 12:01:00,
2013-05-27 08:11:00,52.4,42.1,30.30,West,270,0.4,0.7,68,0.00,,,0.00,WUHU216HW,2013-05-27 12:11:00,
2013-05-27 08:21:00,53.3,42.2,30.30,West,270,0.4,1.1,66,0.00,,,0.00,WUHU216HW,2013-05-27 12:21:00,
2013-05-27 08:31:00,54.5,42.2,30.30,West,270,0.4,0.7,63,0.00,,,0.00,WUHU216HW,2013-05-27 12:31:00,
2013-05-27 08:41:00,55.6,41.5,30.30,West,270,1.8,1.8,59,0.00,,,0.00,WUHU216HW,2013-05-27 12:41:00,
2013-05-27 08:51:00,57.1,41.0,30.29,West,270,0.7,1.8,55,0.00,,,0.00,WUHU216HW,2013-05-27 12:51:00,
2013-05-27 08:56:00,57.6,41.0,30.29,NW,315,0.4,1.8,54,0.00,,,0.00,WUHU216HW,2013-05-27 12:56:00,
2013-05-27 09:01:00,58.0,41.0,30.29,NW,315,0.4,1.8,53,0.00,,,0.00,WUHU216HW,2013-05-27 13:01:00,
2013-05-27 09:06:00,58.5,41.4,30.29,WNW,293,0.4,1.8,53,0.00,,,0.00,WUHU216HW,2013-05-27 13:06:00,
2013-05-27 09:16:00,59.2,40.7,30.29,West,270,2.0,2.0,50,0.00,,,0.00,WUHU216HW,2013-05-27 13:16:00,
2013-05-27 09:26:00,60.1,40.9,30.29,WNW,293,1.3,1.6,49,0.00,,,0.00,WUHU216HW,2013-05-27 13:26:00,
2013-05-27 09:36:00,61.0,43.7,30.29,SSW,203,0.4,2.9,53,0.00,,,0.00,WUHU216HW,2013-05-27 13:36:00,
2013-05-27 09:46:00,62.3,41.7,30.29,NW,315,0.9,2.2,47,0.00,,,0.00,WUHU216HW,2013-05-27 13:46:00,
2013-05-27 09:56:00,62.8,41.1,30.29,WNW,293,1.1,1.8,45,0.00,,,0.00,WUHU216HW,2013-05-27 13:56:00,
2013-05-27 10:06:00,63.7,43.6,30.29,SSW,203,2.9,2.9,48,0.00,,,0.00,WUHU216HW,2013-05-27 14:06:00,
2013-05-27 10:16:00,64.6,41.0,30.29,NW,315,2.7,3.6,42,0.00,,,0.00,WUHU216HW,2013-05-27 14:16:00,
2013-05-27 10:26:00,64.4,40.1,30.29,NNW,338,1.1,2.5,41,0.00,,,0.00,WUHU216HW,2013-05-27 14:26:00,
2013-05-27 10:36:00,65.9,43.8,30.28,East,90,0.2,1.8,45,0.00,,,0.00,WUHU216HW,2013-05-27 14:36:00,
2013-05-27 10:46:00,66.6,41.6,30.28,West,270,0.9,2.5,40,0.00,,,0.00,WUHU216HW,2013-05-27 14:46:00,
2013-05-27 10:56:00,67.0,41.1,30.29,NNE,23,0.9,4.0,39,0.00,,,0.00,WUHU216HW,2013-05-27 14:56:00,
2013-05-27 11:06:00,67.9,42.7,30.28,WNW,293,1.8,2.5,40,0.00,,,0.00,WUHU216HW,2013-05-27 15:06:00,
2013-05-27 11:16:00,68.0,42.8,30.28,North,0,0.4,2.5,40,0.00,,,0.00,WUHU216HW,2013-05-27 15:16:00,
2013-05-27 11:26:00,68.4,41.0,30.27,NW,315,1.6,1.8,37,0.00,,,0.00,WUHU216HW,2013-05-27 15:26:00,
2013-05-27 11:36:00,68.6,39.6,30.28,North,0,2.0,4.0,35,0.00,,,0.00,WUHU216HW,2013-05-27 15:36:00,
2013-05-27 11:46:00,69.1,40.9,30.27,South,180,1.3,2.7,36,0.00,,,0.00,WUHU216HW,2013-05-27 15:46:00,
2013-05-27 11:56:00,69.5,42.7,30.27,SW,225,1.3,2.7,38,0.00,,,0.00,WUHU216HW,2013-05-27 15:56:00,
2013-05-27 12:06:00,69.8,43.0,30.27,NW,315,1.6,2.7,38,0.00,,,0.00,WUHU216HW,2013-05-27 16:06:00,
2013-05-27 12:16:00,69.3,40.3,30.27,WSW,248,1.8,5.4,35,0.00,,,0.00,WUHU216HW,2013-05-27 16:16:00,
2013-05-27 12:26:00,70.0,41.0,30.26,WNW,293,2.9,3.6,35,0.00,,,0.00,WUHU216HW,2013-05-27 16:26:00,
2013-05-27 12:36:00,69.5,39.7,30.26,NW,315,2.9,4.3,34,0.00,,,0.00,WUHU216HW,2013-05-27 16:36:00,
2013-05-27 12:46:00,70.0,43.1,30.25,WSW,248,1.6,3.1,38,0.00,,,0.00,WUHU216HW,2013-05-27 16:46:00,
2013-05-27 12:56:00,70.6,43.7,30.25,WNW,293,0.4,3.6,38,0.00,,,0.00,WUHU216HW,2013-05-27 16:56:00,
2013-05-27 13:06:00,70.7,43.0,30.24,West,270,3.1,3.1,37,0.00,,,0.00,WUHU216HW,2013-05-27 17:06:00,
2013-05-27 13:16:00,70.2,44.0,30.24,SE,135,1.8,2.5,39,0.00,,,0.00,WUHU216HW,2013-05-27 17:16:00,
2013-05-27 13:26:00,70.9,44.7,30.23,NW,315,1.6,2.5,39,0.00,,,0.00,WUHU216HW,2013-05-27 17:26:00,
2013-05-27 13:37:00,70.9,43.9,30.23,NW,315,1.1,3.6,38,0.00,,,0.00,WUHU216HW,2013-05-27 17:37:00,
2013-05-27 13:47:00,70.9,44.7,30.23,SSW,203,0.4,2.2,39,0.00,,,0.00,WUHU216HW,2013-05-27 17:47:00,
2013-05-27 13:57:00,71.5,43.8,30.23,NNW,338,1.1,2.9,37,0.00,,,0.00,WUHU216HW,2013-05-27 17:57:00,
2013-05-27 14:07:00,71.3,44.3,30.22,NNE,23,2.5,2.7,38,0.00,,,0.00,WUHU216HW,2013-05-27 18:07:00,
2013-05-27 14:17:00,71.6,43.8,30.22,NNW,338,0.4,3.4,37,0.00,,,0.00,WUHU216HW,2013-05-27 18:17:00,
2013-05-27 14:27:00,71.6,43.8,30.22,WNW,293,1.1,3.4,37,0.00,,,0.00,WUHU216HW,2013-05-27 18:27:00,
2013-05-27 14:37:00,72.0,41.2,30.22,WSW,248,4.7,4.7,33,0.00,,,0.00,WUHU216HW,2013-05-27 18:37:00,
2013-05-27 14:47:00,71.3,43.6,30.22,WSW,248,0.7,3.6,37,0.00,,,0.00,WUHU216HW,2013-05-27 18:47:00,
2013-05-27 14:57:00,71.5,42.2,30.21,NW,315,0.2,2.5,35,0.00,,,0.00,WUHU216HW,2013-05-27 18:57:00,
2013-05-27 15:07:00,71.6,44.7,30.20,North,0,0.2,2.5,38,0.00,,,0.00,WUHU216HW,2013-05-27 19:07:00,
2013-05-27 15:17:00,71.6,44.7,30.21,SSW,203,1.6,2.9,38,0.00,,,0.00,WUHU216HW,2013-05-27 19:17:00,
2013-05-27 15:27:00,72.4,44.5,30.21,NW,315,0.2,2.0,37,0.00,,,0.00,WUHU216HW,2013-05-27 19:27:00,
2013-05-27 15:37:00,72.4,43.0,30.20,WNW,293,1.1,1.6,35,0.00,,,0.00,WUHU216HW,2013-05-27 19:37:00,
2013-05-27 15:47:00,72.7,41.9,30.20,WSW,248,2.7,2.7,33,0.00,,,0.00,WUHU216HW,2013-05-27 19:47:00,
2013-05-27 15:57:00,72.7,43.3,30.19,NW,315,0.4,2.9,35,0.00,,,0.00,WUHU216HW,2013-05-27 19:57:00,
2013-05-27 16:07:00,72.5,41.7,30.20,West,270,2.5,2.5,33,0.00,,,0.00,WUHU216HW,2013-05-27 20:07:00,
2013-05-27 16:17:00,72.7,42.6,30.19,West,270,0.9,2.2,34,0.00,,,0.00,WUHU216HW,2013-05-27 20:17:00,
2013-05-27 16:27:00,73.3,43.7,30.19,SSW,203,1.8,1.8,35,0.00,,,0.00,WUHU216HW,2013-05-27 20:27:00,
2013-05-27 16:37:00,73.3,41.5,30.19,West,270,4.5,4.5,32,0.00,,,0.00,WUHU216HW,2013-05-27 20:37:00,
2013-05-27 16:47:00,73.4,43.9,30.18,SSW,203,1.1,2.2,35,0.00,,,0.00,WUHU216HW,2013-05-27 20:47:00,
2013-05-27 16:57:00,73.8,44.3,30.18,North,0,0.4,1.8,35,0.00,,,0.00,WUHU216HW,2013-05-27 20:57:00,
2013-05-27 17:07:00,74.5,44.9,30.18,NNW,338,0.9,2.5,35,0.00,,,0.00,WUHU216HW,2013-05-27 21:07:00,
2013-05-27 17:17:00,75.6,44.4,30.18,WNW,293,1.3,2.2,33,0.00,,,0.00,WUHU216HW,2013-05-27 21:17:00,
2013-05-27 17:27:00,74.7,45.1,30.19,SSW,203,1.1,2.5,35,0.00,,,0.00,WUHU216HW,2013-05-27 21:27:00,
2013-05-27 17:37:00,74.2,45.4,30.19,North,0,0.7,3.8,36,0.00,,,0.00,WUHU216HW,2013-05-27 21:37:00,
2013-05-27 17:46:00,73.8,44.3,30.19,SSW,203,0.4,0.4,35,0.00,,,0.00,WUHU216HW,2013-05-27 21:46:00,
2013-05-27 17:56:00,73.1,42.8,30.19,SW,225,0.9,4.5,34,0.00,,,0.00,WUHU216HW,2013-05-27 21:56:00,
2013-05-27 18:06:00,72.4,43.0,30.19,WNW,293,1.1,2.9,35,0.00,,,0.00,WUHU216HW,2013-05-27 22:06:00,
2013-05-27 18:16:00,71.6,44.7,30.19,NW,315,1.3,2.0,38,0.00,,,0.00,WUHU216HW,2013-05-27 22:16:00,
2013-05-27 18:26:00,71.1,44.1,30.19,NW,315,0.7,2.2,38,0.00,,,0.00,WUHU216HW,2013-05-27 22:26:00,
2013-05-27 18:36:00,70.4,44.2,30.19,NW,315,0.4,1.1,39,0.00,,,0.00,WUHU216HW,2013-05-27 22:36:00,
2013-05-27 18:46:00,69.7,44.3,30.19,WNW,293,0.0,1.1,40,0.00,,,0.00,WUHU216HW,2013-05-27 22:46:00,
2013-05-27 18:56:00,68.8,44.1,30.19,NW,315,0.7,0.7,41,0.00,,,0.00,WUHU216HW,2013-05-27 22:56:00,
2013-05-27 19:06:00,68.2,44.2,30.19,NW,315,0.0,0.4,42,0.00,,,0.00,WUHU216HW,2013-05-27 23:06:00,
2013-05-27 19:16:00,67.9,44.5,30.19,NW,315,0.0,0.4,43,0.00,,,0.00,WUHU216HW,2013-05-27 23:16:00,
2013-05-27 19:26:00,67.5,45.4,30.19,NW,315,0.0,0.0,45,0.00,,,0.00,WUHU216HW,2013-05-27 23:26:00,
2013-05-27 19:36:00,67.0,46.0,30.19,NW,315,0.0,0.0,47,0.00,,,0.00,WUHU216HW,2013-05-27 23:36:00,
2013-05-27 19:46:00,66.2,46.0,30.19,NW,315,0.0,0.0,48,0.00,,,0.00,WUHU216HW,2013-05-27 23:46:00,
2013-05-27 19:56:00,65.5,45.8,30.19,NW,315,0.0,0.0,49,0.00,,,0.00,WUHU216HW,2013-05-27 23:56:00,
2013-05-27 20:06:00,64.4,45.8,30.20,NW,315,0.0,0.0,51,0.00,,,0.00,WUHU216HW,2013-05-28 00:06:00,
2013-05-27 20:16:00,63.5,45.6,30.20,NW,315,0.0,0.0,52,0.00,,,0.00,WUHU216HW,2013-05-28 00:16:00,
2013-05-27 20:26:00,62.5,45.6,30.20,NW,315,0.0,0.0,54,0.00,,,0.00,WUHU216HW,2013-05-28 00:26:00,
2013-05-27 20:36:00,61.6,45.7,30.20,NW,315,0.0,0.0,56,0.00,,,0.00,WUHU216HW,2013-05-28 00:36:00,
2013-05-27 20:46:00,60.8,45.0,30.20,NW,315,0.0,0.0,56,0.00,,,0.00,WUHU216HW,2013-05-28 00:46:00,
2013-05-27 20:56:00,60.1,45.3,30.21,NW,315,0.0,0.0,58,0.00,,,0.00,WUHU216HW,2013-05-28 00:56:00,
2013-05-27 21:06:00,59.4,45.1,30.20,NW,315,0.0,0.0,59,0.00,,,0.00,WUHU216HW,2013-05-28 01:06:00,
2013-05-27 21:16:00,58.7,44.4,30.21,NW,315,0.0,0.0,59,0.00,,,0.00,WUHU216HW,2013-05-28 01:16:00,
2013-05-27 21:21:00,58.1,44.4,30.21,NW,315,0.0,0.0,60,0.00,,,0.00,WUHU216HW,2013-05-28 01:21:00,
2013-05-27 21:26:00,57.6,43.9,30.21,NW,315,0.0,0.0,60,0.00,,,0.00,WUHU216HW,2013-05-28 01:26:00,
2013-05-27 21:31:00,57.2,43.9,30.21,NW,315,0.0,0.0,61,0.00,,,0.00,WUHU216HW,2013-05-28 01:31:00,
2013-05-27 21:36:00,56.9,43.6,30.21,NW,315,0.0,0.0,61,0.00,,,0.00,WUHU216HW,2013-05-28 01:36:00,
2013-05-27 21:41:00,56.7,43.8,30.22,NW,315,0.0,0.0,62,0.00,,,0.00,WUHU216HW,2013-05-28 01:41:00,
2013-05-27 21:46:00,56.5,43.7,30.22,NW,315,0.0,0.0,62,0.00,,,0.00,WUHU216HW,2013-05-28 01:46:00,
2013-05-27 21:57:00,56.0,43.6,30.21,NW,315,0.0,0.0,63,0.00,,,0.00,WUHU216HW,2013-05-28 01:57:00,
2013-05-27 22:02:00,55.8,43.4,30.22,NW,315,0.0,0.0,63,0.00,,,0.00,WUHU216HW,2013-05-28 02:02:00,
2013-05-27 22:07:00,55.6,43.6,30.22,NW,315,0.0,0.0,64,0.00,,,0.00,WUHU216HW,2013-05-28 02:07:00,
2013-05-27 22:12:00,55.4,43.4,30.22,NW,315,0.0,0.0,64,0.00,,,0.00,WUHU216HW,2013-05-28 02:12:00,
2013-05-27 22:17:00,55.1,43.5,30.22,NW,315,0.0,0.0,65,0.00,,,0.00,WUHU216HW,2013-05-28 02:17:00,
2013-05-27 22:22:00,54.9,43.8,30.22,NW,315,0.0,0.0,66,0.00,,,0.00,WUHU216HW,2013-05-28 02:22:00,
2013-05-27 22:27:00,54.7,43.6,30.22,NW,315,0.0,0.0,66,0.00,,,0.00,WUHU216HW,2013-05-28 02:27:00,
2013-05-27 22:32:00,54.5,43.4,30.22,NW,315,0.0,0.0,66,0.00,,,0.00,WUHU216HW,2013-05-28 02:32:00,
2013-05-27 22:37:00,54.4,43.7,30.22,NW,315,0.0,0.0,67,0.00,,,0.00,WUHU216HW,2013-05-28 02:37:00,
2013-05-27 22:42:00,54.4,43.7,30.22,NW,315,0.0,0.0,67,0.00,,,0.00,WUHU216HW,2013-05-28 02:42:00,
2013-05-27 22:47:00,54.0,43.7,30.22,NW,315,0.0,0.0,68,0.00,,,0.00,WUHU216HW,2013-05-28 02:47:00,
2013-05-27 22:52:00,54.0,43.7,30.22,NW,315,0.0,0.0,68,0.00,,,0.00,WUHU216HW,2013-05-28 02:52:00,
2013-05-27 22:57:00,53.6,43.8,30.23,NW,315,0.0,0.0,69,0.00,,,0.00,WUHU216HW,2013-05-28 02:57:00,
2013-05-27 23:02:00,53.6,43.8,30.23,NW,315,0.0,0.0,69,0.00,,,0.00,WUHU216HW,2013-05-28 03:02:00,
2013-05-27 23:07:00,53.6,43.8,30.23,NW,315,0.0,0.0,69,0.00,,,0.00,WUHU216HW,2013-05-28 03:07:00,
2013-05-27 23:12:00,53.5,43.6,30.23,NW,315,0.0,0.0,69,0.00,,,0.00,WUHU216HW,2013-05-28 03:12:00,
2013-05-27 23:17:00,53.3,43.7,30.23,NW,315,0.0,0.0,70,0.00,,,0.00,WUHU216HW,2013-05-28 03:17:00,
2013-05-27 23:22:00,53.3,43.7,30.23,NW,315,0.0,0.0,70,0.00,,,0.00,WUHU216HW,2013-05-28 03:22:00,
2013-05-27 23:29:00,53.1,43.7,30.23,NW,315,0.0,0.0,70,0.00,,,0.00,WUHU216HW,2013-05-28 03:29:00,
2013-05-27 23:37:00,53.1,44.0,30.23,NW,315,0.0,0.0,71,0.00,,,0.00,WUHU216HW,2013-05-28 03:37:00,
2013-05-27 23:42:00,52.9,44.2,30.23,NW,315,0.0,0.0,72,0.00,,,0.00,WUHU216HW,2013-05-28 03:42:00,
2013-05-27 23:50:00,52.7,44.0,30.23,NW,315,0.0,0.0,72,0.00,,,0.00,WUHU216HW,2013-05-28 03:50:00,
2013-05-27 23:57:00,52.6,43.8,30.24,NW,315,0.0,0.0,72,0.00,,,0.00,WUHU216HW,2013-05-28 03:57:00,